createdAt,value
2019-05-01T00:08:59.133Z,16.90
2019-05-01T00:13:53.052Z,16.93
2019-05-01T00:18:46.820Z,16.60
2019-05-01T00:23:42.263Z,16.03
2019-05-01T00:28:35.960Z,15.43
2019-05-01T00:33:31.408Z,16.23
2019-05-01T00:38:26.235Z,15.27
2019-05-01T00:43:21.513Z,17.03
2019-05-01T00:48:15.475Z,16.80
2019-05-01T00:53:09.291Z,16.10
2019-05-01T00:58:10.954Z,16.97
2019-05-01T01:03:06.615Z,16.97
2019-05-01T01:08:00.410Z,16.27
2019-05-01T01:12:54.510Z,17.27
2019-05-01T01:17:48.292Z,16.23
2019-05-01T01:22:42.492Z,15.37
2019-05-01T01:27:36.921Z,17.00
2019-05-01T01:32:30.724Z,20.43
2019-05-01T01:37:24.778Z,20.67
2019-05-01T01:42:19.458Z,19.97
2019-05-01T01:47:13.569Z,19.30
2019-05-01T01:52:07.638Z,19.20
2019-05-01T01:57:04.160Z,19.63
2019-05-01T02:01:59.825Z,18.00
2019-05-01T02:06:53.712Z,19.60
2019-05-01T02:11:48.754Z,21.20
2019-05-01T02:16:43.833Z,19.93
2019-05-01T02:21:37.961Z,20.10
2019-05-01T02:26:39.518Z,19.83
2019-05-01T02:31:36.430Z,19.90
2019-05-01T02:36:31.578Z,18.90
2019-05-01T02:41:28.559Z,20.17
2019-05-01T02:46:25.262Z,19.70
2019-05-01T02:51:20.513Z,19.90
2019-05-01T02:56:36.534Z,20.07
2019-05-01T03:01:45.689Z,18.93
2019-05-01T03:06:29.077Z,21.20
2019-05-01T03:11:23.146Z,19.40
2019-05-01T03:16:18.885Z,19.97
2019-05-01T03:21:14.480Z,19.33
2019-05-01T03:26:08.739Z,19.50
2019-05-01T03:31:05.872Z,19.73
2019-05-01T03:36:03.679Z,19.80
2019-05-01T03:40:57.753Z,19.47
2019-05-01T03:45:53.056Z,20.47
2019-05-01T03:50:47.773Z,20.77
2019-05-01T03:55:42.368Z,20.93
2019-05-01T04:00:41.192Z,21.17
2019-05-01T04:05:35.113Z,22.33
2019-05-01T04:10:28.995Z,22.07
2019-05-01T04:15:23.775Z,22.30
2019-05-01T04:20:18.005Z,20.70
2019-05-01T04:25:12.644Z,22.93
2019-05-01T04:30:08.924Z,23.40
2019-05-01T04:35:21.678Z,24.47
2019-05-01T04:40:18.706Z,25.80
2019-05-01T04:45:12.595Z,27.00
2019-05-01T04:50:07.634Z,29.70
2019-05-01T04:59:55.554Z,28.40
2019-05-01T05:04:49.667Z,28.63
2019-05-01T05:09:45.360Z,27.23
2019-05-01T05:14:46.571Z,27.37
2019-05-01T05:19:40.688Z,27.70
2019-05-01T05:24:34.683Z,27.47
2019-05-01T05:29:29.202Z,26.97
2019-05-01T05:34:29.264Z,27.33
2019-05-01T05:39:27.508Z,28.70
2019-05-01T05:44:23.243Z,28.47
2019-05-01T05:49:17.747Z,30.87
2019-05-01T05:54:33.267Z,30.60
2019-05-01T06:04:44.040Z,32.13
2019-05-01T06:09:44.720Z,44.10
2019-05-01T06:14:47.112Z,42.77
2019-05-01T06:19:45.915Z,43.67
2019-05-01T06:24:42.350Z,47.00
2019-05-01T06:29:37.308Z,48.77
2019-05-01T06:34:31.870Z,51.70
2019-05-01T06:39:27.308Z,65.43
2019-05-01T06:44:23.947Z,64.00
2019-05-01T06:49:36.962Z,55.33
2019-05-01T06:54:32.106Z,62.70
2019-05-01T06:59:31.478Z,59.70
2019-05-01T07:04:23.799Z,51.17
2019-05-01T07:09:27.760Z,48.70
2019-05-01T07:14:16.352Z,45.37
2019-05-01T07:19:10.603Z,46.73
2019-05-01T07:24:07.650Z,52.10
2019-05-01T07:29:09.526Z,38.97
2019-05-01T07:34:16.039Z,38.63
2019-05-01T07:38:59.942Z,35.87
2019-05-01T07:44:00.990Z,33.77
2019-05-01T07:48:55.135Z,32.27
2019-05-01T07:53:47.883Z,33.80
2019-05-01T07:58:47.378Z,32.30
2019-05-01T08:03:42.668Z,32.63
2019-05-01T08:08:39.709Z,32.30
2019-05-01T08:13:30.594Z,33.83
2019-05-01T08:18:36.118Z,35.47
2019-05-01T08:23:29.351Z,32.60
2019-05-01T08:28:32.057Z,31.87
2019-05-01T08:33:40.199Z,31.93
2019-05-01T08:38:35.348Z,30.93
2019-05-01T08:43:29.494Z,31.77
2019-05-01T08:48:25.354Z,28.77
2019-05-01T08:53:22.063Z,27.70
2019-05-01T08:58:14.295Z,26.57
2019-05-01T09:03:13.530Z,23.67
2019-05-01T09:08:09.274Z,29.80
2019-05-01T09:13:04.978Z,31.13
2019-05-01T09:17:58.721Z,23.03
2019-05-01T09:22:52.711Z,24.10
2019-05-01T09:27:54.034Z,25.50
2019-05-01T09:32:54.105Z,22.60
2019-05-01T09:37:43.696Z,24.67
2019-05-01T09:42:37.804Z,26.50
2019-05-01T09:47:33.573Z,29.27
2019-05-01T09:52:29.887Z,25.20
2019-05-01T09:57:23.959Z,25.10
2019-05-01T10:02:19.662Z,20.10
2019-05-01T10:07:14.019Z,22.33
2019-05-01T10:12:11.618Z,25.17
2019-05-01T10:17:05.387Z,24.17
2019-05-01T10:22:02.470Z,25.23
2019-05-01T10:27:00.207Z,22.63
2019-05-01T10:31:56.171Z,25.47
2019-05-01T10:36:54.635Z,23.67
2019-05-01T10:46:41.207Z,18.03
2019-05-01T10:51:35.118Z,21.90
2019-05-01T10:56:29.001Z,20.10
2019-05-01T11:01:25.339Z,19.27
2019-05-01T11:06:19.488Z,16.35
2019-05-01T11:11:16.401Z,18.77
2019-05-01T11:16:12.390Z,17.13
2019-05-01T11:21:06.592Z,18.97
2019-05-01T11:26:01.259Z,19.13
2019-05-01T11:30:55.847Z,20.53
2019-05-01T11:36:08.975Z,23.63
2019-05-01T11:40:59.996Z,21.27
2019-05-01T11:45:53.801Z,22.33
2019-05-01T11:50:47.767Z,22.10
2019-05-01T11:55:41.667Z,20.20
2019-05-01T12:00:35.559Z,20.40
2019-05-01T12:05:30.419Z,20.07
2019-05-01T12:10:30.455Z,19.20
2019-05-01T12:15:24.447Z,17.63
2019-05-01T12:20:22.920Z,16.53
2019-05-01T12:25:19.332Z,15.30
2019-05-01T12:30:15.346Z,13.27
2019-05-01T12:35:10.386Z,13.23
2019-05-01T12:40:09.547Z,15.00
2019-05-01T12:45:04.192Z,17.57
2019-05-01T12:49:58.296Z,20.77
2019-05-01T12:55:03.181Z,23.10
2019-05-01T13:00:08.117Z,21.40
2019-05-01T13:04:52.867Z,21.00
2019-05-01T13:09:46.578Z,20.27
2019-05-01T13:14:40.496Z,23.27
2019-05-01T13:19:34.861Z,22.67
2019-05-01T13:24:28.744Z,22.13
2019-05-01T13:29:24.195Z,19.73
2019-05-01T13:34:18.383Z,23.57
2019-05-01T13:39:13.183Z,19.83
2019-05-01T13:44:07.465Z,17.63
2019-05-01T13:49:02.876Z,14.83
2019-05-01T13:58:52.216Z,14.30
2019-05-01T14:03:46.317Z,35.73
2019-05-01T14:08:41.222Z,16.67
2019-05-01T14:13:34.930Z,17.50
2019-05-01T14:28:17.754Z,11.20
2019-05-01T14:33:11.457Z,10.73
2019-05-01T14:38:08.565Z,11.53
2019-05-01T14:43:05.215Z,11.33
2019-05-01T14:47:59.272Z,12.03
2019-05-01T14:52:53.335Z,13.47
2019-05-01T14:57:47.400Z,15.17
2019-05-01T15:02:41.171Z,14.63
2019-05-01T15:07:43.221Z,13.00
2019-05-01T15:12:31.012Z,14.27
2019-05-01T15:17:26.747Z,14.43
2019-05-01T15:22:20.600Z,14.33
2019-05-01T15:27:14.500Z,16.23
2019-05-01T15:32:08.523Z,11.80
2019-05-01T15:37:02.390Z,13.50
2019-05-01T15:42:03.861Z,13.30
2019-05-01T15:46:57.752Z,14.10
2019-05-01T15:51:51.586Z,13.00
2019-05-01T15:56:45.557Z,19.93
2019-05-01T16:01:39.397Z,11.60
2019-05-01T16:06:35.901Z,13.53
2019-05-01T16:11:36.978Z,10.13
2019-05-01T16:16:31.036Z,19.73
2019-05-01T16:21:24.944Z,18.93
2019-05-01T16:26:22.917Z,20.83
2019-05-01T16:31:17.364Z,35.47
2019-05-01T16:36:12.635Z,13.87
2019-05-01T16:41:08.113Z,14.87
2019-05-01T16:46:02.263Z,13.43
2019-05-01T16:50:56.117Z,12.27
2019-05-01T16:55:49.914Z,12.13
2019-05-01T17:01:00.249Z,12.53
2019-05-01T17:05:55.855Z,12.77
2019-05-01T17:10:51.307Z,13.27
2019-05-01T17:15:49.828Z,13.77
2019-05-01T17:20:43.690Z,12.53
2019-05-01T17:25:39.400Z,12.17
2019-05-01T17:30:38.823Z,13.53
2019-05-01T17:35:32.616Z,12.20
2019-05-01T17:40:26.828Z,13.20
2019-05-01T17:45:20.588Z,13.97
2019-05-01T17:50:16.403Z,13.90
2019-05-01T17:55:10.866Z,14.10
2019-05-01T18:00:26.692Z,13.07
2019-05-01T18:05:39.913Z,12.27
2019-05-01T18:10:34.114Z,11.90
2019-05-01T18:15:29.506Z,11.33
2019-05-01T18:20:23.628Z,12.20
2019-05-01T18:25:33.075Z,12.40
2019-05-01T18:30:26.728Z,12.90
2019-05-01T18:35:20.643Z,12.83
2019-05-01T18:40:25.710Z,12.83
2019-05-01T18:45:44.427Z,13.73
2019-05-01T18:50:38.266Z,13.63
2019-05-01T18:55:32.092Z,14.53
2019-05-01T19:00:25.906Z,13.83
2019-05-01T19:05:20.021Z,14.07
2019-05-01T19:10:13.953Z,14.33
2019-05-01T19:15:07.767Z,15.23
2019-05-01T19:20:01.677Z,15.77
2019-05-01T19:24:57.263Z,19.17
2019-05-01T19:29:51.374Z,17.90
2019-05-01T19:34:45.244Z,16.60
2019-05-01T19:39:43.848Z,16.57
2019-05-01T19:44:35.399Z,16.37
2019-05-01T19:49:31.787Z,17.13
2019-05-01T19:54:27.933Z,17.60
2019-05-01T19:59:21.003Z,17.23
2019-05-01T20:04:15.482Z,17.13
2019-05-01T20:09:10.911Z,16.80
2019-05-01T20:14:07.791Z,17.90
2019-05-01T20:19:03.353Z,17.93
2019-05-01T20:23:58.700Z,18.93
2019-05-01T20:28:52.520Z,17.73
2019-05-01T20:33:47.180Z,18.37
2019-05-01T20:38:41.194Z,19.93
2019-05-01T20:43:38.113Z,19.10
2019-05-01T20:48:31.157Z,18.83
2019-05-01T20:53:25.192Z,21.07
2019-05-01T20:58:20.410Z,26.07
2019-05-01T21:08:28.971Z,19.70
2019-05-01T21:13:23.474Z,18.03
2019-05-01T21:18:20.918Z,19.13
2019-05-01T21:23:14.435Z,18.47
2019-05-01T21:28:08.831Z,19.93
2019-05-01T21:33:09.696Z,20.20
2019-05-01T21:38:01.794Z,20.90
2019-05-01T21:42:55.851Z,19.43
2019-05-01T21:47:50.411Z,21.37
2019-05-01T21:52:45.137Z,20.33
2019-05-01T21:57:41.935Z,20.60
2019-05-01T22:02:35.722Z,20.97
2019-05-01T22:07:29.883Z,23.70
2019-05-01T22:12:23.745Z,21.53
2019-05-01T22:17:22.294Z,19.70
2019-05-01T22:22:29.798Z,21.30
2019-05-01T22:27:37.150Z,22.47
2019-05-01T22:32:35.481Z,20.80
2019-05-01T22:37:30.609Z,21.57
2019-05-01T22:42:24.459Z,21.50
2019-05-01T22:47:18.776Z,23.97
2019-05-01T22:52:12.664Z,23.17
2019-05-01T22:57:06.854Z,22.17
2019-05-01T23:02:02.558Z,22.27
2019-05-01T23:06:56.363Z,22.40
2019-05-01T23:11:50.594Z,24.07
2019-05-01T23:16:46.307Z,23.93
2019-05-01T23:21:39.999Z,23.97
2019-05-01T23:26:33.972Z,22.67
2019-05-01T23:31:27.800Z,22.73
2019-05-01T23:36:23.714Z,22.87
2019-05-01T23:41:17.435Z,23.23
2019-05-01T23:46:11.276Z,21.80
2019-05-01T23:51:05.408Z,22.40
2019-05-01T23:56:02.102Z,22.40
